createdAt,value
2022-09-16T10:00:31.696Z,10.10
2022-09-16T10:03:37.272Z,6.50
2022-09-16T10:08:58.616Z,7.60
2022-09-16T10:17:37.118Z,6.90
2022-09-16T10:20:23.963Z,10.50
2022-09-16T10:23:41.352Z,9.90
2022-09-16T10:26:35.412Z,9.10
2022-09-16T10:29:17.962Z,7.80
2022-09-16T10:31:46.989Z,9.40
2022-09-16T11:00:15.374Z,9.50
2022-09-16T11:03:25.390Z,7.10
2022-09-16T11:07:27.488Z,6.60
2022-09-16T11:10:29.834Z,9.60
2022-09-16T11:16:42.889Z,8.50
2022-09-16T11:19:28.794Z,12.70
2022-09-16T11:22:57.969Z,8.90
2022-09-16T11:29:20.201Z,8.80
2022-09-16T11:32:07.728Z,6.70
2022-09-16T11:34:58.368Z,10.40
2022-09-16T11:37:48.652Z,10.60
2022-09-16T11:44:36.537Z,19.70
2022-09-16T11:57:19.953Z,9.80
2022-09-16T12:04:01.513Z,16.10
2022-09-16T12:06:42.629Z,10.40
2022-09-16T12:09:20.116Z,9.60
2022-09-16T12:12:10.032Z,13.90
2022-09-16T12:15:31.367Z,12.70
2022-09-16T12:21:34.502Z,9.10
2022-09-16T12:24:45.500Z,15.10
2022-09-16T12:27:21.813Z,9.00
2022-09-16T12:30:38.605Z,9.20
2022-09-16T12:33:29.896Z,7.80
2022-09-16T12:36:11.219Z,19.10
2022-09-16T12:38:40.404Z,8.90
2022-09-16T12:41:34.768Z,8.10
2022-09-16T12:44:34.446Z,9.20
2022-09-16T12:47:35.574Z,5.90
2022-09-16T12:50:36.160Z,6.20
2022-09-16T12:53:25.482Z,6.60
2022-09-16T12:56:24.468Z,9.00
2022-09-16T12:59:14.452Z,15.90
2022-09-16T13:02:00.975Z,12.00
2022-09-16T13:04:43.869Z,8.80
2022-09-16T13:07:38.916Z,10.10
2022-09-16T13:10:54.516Z,8.00
2022-09-16T13:13:40.618Z,8.20
2022-09-16T13:16:10.502Z,10.50
2022-09-16T13:18:45.662Z,8.70
2022-09-16T13:21:39.956Z,14.40
2022-09-16T13:24:23.294Z,10.20
2022-09-16T13:26:51.862Z,10.70
2022-09-16T13:29:37.772Z,8.30
2022-09-16T13:32:08.088Z,9.70
2022-09-16T13:35:34.476Z,8.20
2022-09-16T13:38:34.308Z,8.50
2022-09-16T13:41:03.905Z,13.20
2022-09-16T13:43:51.955Z,11.30
2022-09-16T13:46:32.377Z,15.30
2022-09-16T13:49:20.315Z,8.20
2022-09-16T13:51:51.244Z,11.00
2022-09-16T13:55:06.185Z,8.90
2022-09-16T13:58:09.520Z,10.40
2022-09-16T14:01:07.599Z,10.60
2022-09-16T14:03:49.754Z,9.40
2022-09-16T14:07:05.553Z,15.20
2022-09-16T14:10:14.060Z,14.00
2022-09-16T14:13:11.190Z,12.70
2022-09-16T14:15:57.634Z,10.10
2022-09-16T14:18:29.980Z,11.40
2022-09-16T14:21:07.874Z,9.30
2022-09-16T14:37:17.915Z,8.00
2022-09-16T14:39:46.595Z,11.20
2022-09-16T14:42:27.079Z,8.70
2022-09-16T14:44:58.866Z,14.80
2022-09-16T14:47:50.099Z,11.60
2022-09-16T14:50:32.795Z,7.60
2022-09-16T14:53:37.512Z,13.30
2022-09-16T14:56:20.075Z,11.70
2022-09-16T14:59:06.526Z,10.00
2022-09-16T15:01:34.731Z,10.80
2022-09-16T15:04:19.562Z,9.30
2022-09-16T15:06:58.131Z,9.50
2022-09-16T15:10:00.312Z,7.90
2022-09-16T15:12:59.109Z,9.60
2022-09-16T15:15:35.089Z,5.90
2022-09-16T15:18:21.998Z,6.00
2022-09-16T15:21:06.251Z,9.30
2022-09-16T15:23:39.432Z,6.40
2022-09-16T15:26:24.316Z,7.90
2022-09-16T15:29:04.352Z,6.90
2022-09-16T15:31:41.194Z,7.70
2022-09-16T15:34:21.268Z,7.00
2022-09-16T15:36:53.317Z,7.20
2022-09-16T15:39:30.290Z,7.50
2022-09-16T15:42:06.257Z,8.70
2022-09-16T15:44:40.390Z,7.30
2022-09-16T15:47:19.621Z,6.30
2022-09-16T15:50:09.375Z,9.20
2022-09-16T15:52:55.630Z,7.60
2022-09-16T15:56:07.319Z,7.50
2022-09-16T15:58:42.131Z,8.30
2022-09-16T16:01:16.771Z,9.60
2022-09-16T16:03:44.847Z,8.30
2022-09-16T16:06:13.605Z,6.20
2022-09-16T16:08:51.809Z,5.30
2022-09-16T16:11:34.101Z,10.70
2022-09-16T16:14:15.348Z,7.00
2022-09-16T16:17:08.505Z,6.90
2022-09-16T16:19:34.321Z,7.10
2022-09-16T16:22:02.589Z,7.40
2022-09-16T16:24:30.975Z,8.90
2022-09-16T16:27:00.134Z,7.80
2022-09-16T16:29:28.265Z,6.70
2022-09-16T16:31:59.381Z,9.50
2022-09-16T16:34:27.519Z,9.00
2022-09-16T16:53:31.296Z,7.60
2022-09-16T16:59:28.775Z,6.10
2022-09-16T17:01:58.179Z,9.60
2022-09-16T17:04:55.051Z,7.00
2022-09-16T17:10:46.148Z,7.60
2022-09-16T17:13:14.440Z,5.30
2022-09-16T17:15:45.238Z,7.70
2022-09-16T17:24:25.967Z,7.00
2022-09-16T17:26:57.418Z,10.10
2022-09-16T17:29:28.698Z,10.40
2022-09-16T17:31:57.415Z,9.70
2022-09-16T17:34:26.614Z,9.20
2022-09-16T17:36:58.645Z,12.50
2022-09-16T17:39:27.013Z,7.10
2022-09-16T17:42:00.087Z,7.80
2022-09-16T17:44:28.079Z,8.40
2022-09-16T17:47:22.399Z,8.40
2022-09-16T17:49:59.510Z,9.30
2022-09-16T17:52:28.949Z,7.60
2022-09-16T17:54:58.771Z,7.30
2022-09-16T17:57:32.960Z,11.20
2022-09-16T18:00:02.244Z,7.00
2022-09-16T18:02:48.092Z,6.30
2022-09-16T18:05:25.599Z,7.20
2022-09-16T18:08:28.556Z,8.00
2022-09-16T18:10:59.974Z,10.20
2022-09-16T18:13:28.381Z,6.60
2022-09-16T18:16:01.447Z,8.60
2022-09-16T18:18:36.264Z,8.80
2022-09-16T18:21:06.729Z,10.20
2022-09-16T18:23:39.717Z,11.70
2022-09-16T18:26:12.001Z,11.30
2022-09-16T18:29:08.222Z,10.80
2022-09-16T18:31:38.321Z,8.30
2022-09-16T18:34:08.086Z,8.80
2022-09-16T18:36:37.735Z,9.50
2022-09-16T18:39:07.578Z,7.10
2022-09-16T18:41:38.038Z,9.70
2022-09-16T18:44:15.883Z,8.50
2022-09-16T18:46:49.905Z,9.00
2022-09-16T18:49:22.288Z,7.90
2022-09-16T18:51:52.424Z,8.10
2022-09-16T18:54:28.801Z,5.70
2022-09-16T18:57:00.174Z,7.10
2022-09-16T18:59:31.474Z,6.20
2022-09-16T19:02:03.871Z,7.60
2022-09-16T19:04:37.971Z,7.10
2022-09-16T19:07:08.680Z,8.60
2022-09-16T19:12:10.161Z,8.80
2022-09-16T19:14:39.557Z,8.00
2022-09-16T19:17:11.738Z,7.70
2022-09-16T19:19:43.691Z,9.60
2022-09-16T19:22:14.834Z,8.60
2022-09-16T19:24:48.544Z,8.00
2022-09-16T19:27:17.538Z,11.30
2022-09-16T19:29:47.902Z,10.10
2022-09-16T19:32:18.116Z,9.60
2022-09-16T19:37:18.465Z,12.90
2022-09-16T19:39:47.312Z,10.30
2022-09-16T19:42:16.005Z,14.30
2022-09-16T19:44:44.835Z,12.40
2022-09-16T19:47:13.349Z,11.00
2022-09-16T19:49:43.472Z,14.30
2022-09-16T19:52:14.715Z,15.60
2022-09-16T19:54:47.199Z,30.20
2022-09-16T19:57:27.808Z,18.70
2022-09-16T19:59:59.730Z,19.70
2022-09-16T20:02:35.049Z,17.70
2022-09-16T20:05:13.549Z,14.70
2022-09-16T20:07:42.804Z,14.40
2022-09-16T20:10:24.032Z,28.70
2022-09-16T20:13:16.300Z,16.00
2022-09-16T20:15:57.193Z,13.20
2022-09-16T20:18:35.583Z,19.80
2022-09-16T20:21:08.910Z,17.10
2022-09-16T20:23:39.413Z,15.70
2022-09-16T20:26:19.854Z,16.90
2022-09-16T20:28:59.959Z,28.30
2022-09-16T20:31:48.556Z,16.90
2022-09-16T20:41:08.035Z,19.70
2022-09-16T20:43:52.439Z,24.10
2022-09-16T20:46:31.669Z,28.40
2022-09-16T20:49:03.983Z,29.60
2022-09-16T20:51:58.019Z,22.60
2022-09-16T20:54:29.868Z,30.60
2022-09-16T20:56:58.833Z,20.60
2022-09-16T20:59:35.886Z,23.20
2022-09-16T21:06:12.132Z,25.90
2022-09-16T21:08:41.644Z,22.00
2022-09-16T21:11:18.848Z,17.40
2022-09-16T21:13:56.482Z,18.20
2022-09-16T21:16:26.477Z,24.80
2022-09-16T21:19:01.844Z,30.90
2022-09-16T21:21:34.324Z,21.90
2022-09-16T21:24:03.535Z,27.30
2022-09-16T21:26:44.625Z,22.90
2022-09-16T21:29:22.546Z,28.00
2022-09-16T21:31:56.296Z,22.00
2022-09-16T21:34:39.531Z,20.10
2022-09-16T21:37:18.152Z,19.80
2022-09-16T21:40:00.947Z,18.90
2022-09-16T21:42:36.211Z,20.30
2022-09-16T21:45:39.144Z,18.60
2022-09-16T21:48:58.465Z,19.90
2022-09-16T21:55:12.081Z,43.20
2022-09-16T21:57:47.924Z,45.60
2022-09-16T22:00:21.139Z,50.40
2022-09-16T22:03:01.105Z,57.70
2022-09-16T22:05:48.669Z,55.50
2022-09-16T22:08:21.115Z,67.30
2022-09-16T22:10:56.068Z,61.20
2022-09-16T22:13:34.994Z,51.30
2022-09-16T22:16:07.034Z,50.60
2022-09-16T22:21:09.039Z,48.00
2022-09-16T22:23:43.568Z,34.30
2022-09-16T22:26:18.863Z,28.80
2022-09-16T22:28:47.920Z,27.90
2022-09-16T22:31:25.892Z,29.90
2022-09-16T22:33:55.578Z,19.50
2022-09-16T22:36:28.088Z,23.20
2022-09-16T22:39:00.929Z,24.60
2022-09-16T22:41:33.979Z,25.00
2022-09-16T22:44:09.310Z,25.90
2022-09-16T22:46:46.578Z,24.10
2022-09-16T22:49:29.217Z,17.60
2022-09-16T22:52:02.602Z,24.30
2022-09-16T22:54:39.007Z,20.70
2022-09-16T22:57:23.107Z,17.90
2022-09-16T22:59:57.851Z,17.90
2022-09-16T23:02:39.342Z,18.50
2022-09-16T23:05:31.472Z,19.80
2022-09-16T23:08:27.379Z,20.00
2022-09-16T23:11:02.925Z,20.30
2022-09-16T23:13:36.177Z,24.50
2022-09-16T23:19:08.673Z,18.60
2022-09-16T23:21:38.560Z,31.80
2022-09-16T23:24:08.871Z,27.70
2022-09-16T23:26:47.394Z,26.70
2022-09-16T23:29:34.001Z,26.70
2022-09-16T23:32:33.989Z,21.10
2022-09-16T23:35:11.136Z,17.80
2022-09-16T23:37:40.516Z,19.00
2022-09-16T23:40:12.592Z,26.10
2022-09-16T23:42:42.890Z,21.50
2022-09-16T23:45:11.165Z,20.60
2022-09-16T23:47:39.291Z,17.40
2022-09-16T23:50:19.301Z,19.10
2022-09-16T23:52:56.058Z,20.10
2022-09-16T23:55:44.728Z,14.60
2022-09-16T23:58:23.348Z,15.50
